Time;durP1;ratioP1;P1;durP2;ratioP2;P2;SDS_P1;SDS_P2;PMS_P1;PMS_P2;Temp;Humidity;BMP_temperature;BMP_pressure;BME280_temperature;BME280_humidity;BME280_pressure;Samples;Min_cycle;Max_cycle;Signal;HPM_P1;HPM_P2
2023/03/21 00:01:35;;;;;;;15.60;13.93;;;8.80;99.90;;;;;;6216215;23;20363;-86
2023/03/21 00:04:01;;;;;;;18.30;16.38;;;8.70;99.90;;;;;;6243492;23;20668;-86
2023/03/21 00:06:27;;;;;;;19.40;17.50;;;8.50;99.90;;;;;;6215344;23;20337;-86
2023/03/21 00:08:53;;;;;;;20.05;18.02;;;8.50;99.90;;;;;;6242392;23;20426;-86
2023/03/21 00:11:18;;;;;;;21.20;19.20;;;8.40;99.90;;;;;;6216118;23;20815;-85
2023/03/21 00:13:44;;;;;;;21.30;18.90;;;8.40;99.90;;;;;;6216135;23;20406;-85
2023/03/21 00:16:16;;;;;;;21.70;19.50;;;8.40;99.90;;;;;;6216064;23;20364;-84
2023/03/21 00:18:51;;;;;;;22.17;19.42;;;8.30;99.90;;;;;;6241444;23;20820;-85
2023/03/21 00:21:19;;;;;;;20.88;18.77;;;8.40;99.90;;;;;;6215950;23;20827;-85
2023/03/21 00:23:45;;;;;;;21.37;19.27;;;8.40;99.90;;;;;;6242406;23;20352;-86
2023/03/21 00:26:12;;;;;;;20.65;18.73;;;8.40;99.90;;;;;;6241454;23;20486;-86
2023/03/21 00:28:40;;;;;;;21.40;19.27;;;8.40;99.90;;;;;;6241866;23;20340;-85
2023/03/21 00:31:07;;;;;;;23.02;20.73;;;8.40;99.90;;;;;;6241586;23;20684;-86
2023/03/21 00:33:33;;;;;;;22.27;20.08;;;8.40;99.90;;;;;;6243242;23;20700;-84
2023/03/21 00:36:00;;;;;;;23.17;20.42;;;8.40;99.90;;;;;;6216588;23;20356;-85
2023/03/21 00:38:26;;;;;;;24.88;22.38;;;8.40;99.90;;;;;;6241329;23;20804;-85
2023/03/21 00:40:52;;;;;;;23.05;20.75;;;8.30;99.90;;;;;;6242207;23;20375;-85
2023/03/21 00:43:22;;;;;;;23.00;20.70;;;8.30;99.90;;;;;;6242146;23;20380;-84
2023/03/21 00:45:50;;;;;;;25.25;22.50;;;8.30;99.90;;;;;;6214858;23;20356;-87
2023/03/21 00:48:16;;;;;;;22.63;20.33;;;8.30;99.90;;;;;;6214954;23;20387;-86
2023/03/21 00:50:45;;;;;;;22.75;20.35;;;8.50;99.90;;;;;;6242247;23;20803;-85
2023/03/21 00:53:11;;;;;;;23.80;21.50;;;8.40;99.90;;;;;;6241113;23;20340;-85
2023/03/21 00:55:37;;;;;;;23.50;21.10;;;8.30;99.90;;;;;;6242335;23;20392;-84
2023/03/21 00:58:04;;;;;;;23.35;20.95;;;8.40;99.90;;;;;;6240947;23;20469;-85
2023/03/21 01:00:31;;;;;;;24.63;22.02;;;8.30;99.90;;;;;;6214726;23;20406;-85
2023/03/21 01:03:04;;;;;;;23.63;21.43;;;8.20;99.90;;;;;;6242056;23;20340;-86
2023/03/21 01:08:18;;;;;;;22.85;20.67;;;8.10;99.90;;;;;;6241796;23;20343;-85
2023/03/21 01:10:46;;;;;;;24.33;21.92;;;8.10;99.90;;;;;;6241776;23;20487;-85
2023/03/21 01:13:13;;;;;;;25.52;22.98;;;8.20;99.90;;;;;;6242360;23;20344;-85
2023/03/21 01:15:46;;;;;;;25.90;23.35;;;8.10;99.90;;;;;;6215929;23;20352;-85
2023/03/21 01:18:12;;;;;;;27.77;24.88;;;8.00;99.90;;;;;;6213024;23;20376;-85
2023/03/21 01:20:41;;;;;;;31.23;28.15;;;8.00;99.90;;;;;;6214604;23;20358;-85
2023/03/21 01:23:07;;;;;;;31.45;28.45;;;7.90;99.90;;;;;;6240978;23;20341;-86
2023/03/21 01:25:32;;;;;;;31.87;28.67;;;7.90;99.90;;;;;;6240535;23;20351;-85
2023/03/21 01:27:58;;;;;;;35.07;31.67;;;8.10;99.90;;;;;;6240170;23;20340;-85
2023/03/21 01:30:24;;;;;;;35.47;32.08;;;7.90;99.90;;;;;;6241382;23;20393;-86
2023/03/21 01:32:50;;;;;;;33.30;30.13;;;7.80;99.90;;;;;;6241863;23;20422;-85
2023/03/21 01:35:16;;;;;;;35.85;32.15;;;8.00;99.90;;;;;;6241644;23;20391;-86
2023/03/21 01:37:42;;;;;;;33.80;30.60;;;7.90;99.90;;;;;;6213762;23;20376;-86
2023/03/21 01:40:11;;;;;;;34.40;30.90;;;8.10;99.90;;;;;;6215469;23;20343;-85
2023/03/21 01:42:38;;;;;;;35.55;32.05;;;8.20;99.90;;;;;;6240960;23;20352;-84
2023/03/21 01:45:26;;;;;;;35.75;32.22;;;8.00;99.90;;;;;;6213493;23;20345;-85
2023/03/21 01:47:51;;;;;;;37.55;33.92;;;8.00;99.90;;;;;;6239693;23;20349;-84
2023/03/21 01:50:21;;;;;;;37.45;33.75;;;7.90;99.90;;;;;;6242432;23;20344;-85
2023/03/21 01:52:48;;;;;;;38.67;34.65;;;7.90;99.90;;;;;;6241094;22;20434;-83
2023/03/21 01:55:16;;;;;;;40.45;36.42;;;8.00;99.90;;;;;;6240932;23;20346;-85
2023/03/21 01:57:48;;;;;;;41.17;37.17;;;7.90;99.90;;;;;;6240022;23;20368;-86
2023/03/21 02:00:15;;;;;;;41.63;37.33;;;7.80;99.90;;;;;;6241551;23;20546;-86
2023/03/21 02:02:50;;;;;;;43.35;38.97;;;7.80;99.90;;;;;;6242311;23;20393;-86
2023/03/21 02:05:29;;;;;;;43.28;38.97;;;7.70;99.90;;;;;;6242115;23;20344;-86
2023/03/21 02:07:55;;;;;;;44.40;39.92;;;7.80;99.90;;;;;;6241294;23;20818;-86
2023/03/21 02:10:21;;;;;;;44.28;39.75;;;7.80;99.90;;;;;;6243222;23;20406;-85
2023/03/21 02:12:47;;;;;;;44.50;39.95;;;7.80;99.90;;;;;;6243805;23;20336;-86
2023/03/21 02:15:14;;;;;;;44.60;40.13;;;7.80;99.90;;;;;;6244157;23;20432;-85
2023/03/21 02:17:43;;;;;;;43.58;39.38;;;7.80;99.90;;;;;;6243103;23;20364;-85
2023/03/21 02:20:41;;;;;;;44.78;40.30;;;7.70;99.90;;;;;;6217797;23;20677;-85
2023/03/21 02:23:25;;;;;;;46.28;41.47;;;7.80;99.90;;;;;;6245917;23;20406;-85
2023/03/21 02:26:21;;;;;;;44.70;40.03;;;7.70;99.90;;;;;;6247193;23;20380;-85
2023/03/21 02:31:25;;;;;;;45.77;41.07;;;7.70;99.90;;;;;;6218362;22;20450;-84
2023/03/21 02:34:16;;;;;;;45.90;41.30;;;7.70;99.90;;;;;;6239998;23;20344;-85
2023/03/21 02:37:00;;;;;;;46.80;41.80;;;7.80;99.90;;;;;;6213078;23;20466;-85
2023/03/21 02:39:36;;;;;;;47.08;42.15;;;7.80;99.90;;;;;;6240972;23;20341;-85
2023/03/21 02:42:23;;;;;;;46.47;41.40;;;7.70;99.90;;;;;;6214725;23;20349;-86
2023/03/21 02:45:02;;;;;;;46.17;41.35;;;7.70;99.90;;;;;;6242263;23;20340;-86
2023/03/21 02:47:33;;;;;;;46.67;41.67;;;7.70;99.90;;;;;;6216398;23;20363;-83
2023/03/21 02:50:11;;;;;;;48.15;43.05;;;7.70;99.90;;;;;;6240019;23;20434;-83
2023/03/21 02:52:38;;;;;;;46.17;41.30;;;7.70;99.90;;;;;;6241440;23;20430;-84
2023/03/21 02:55:34;;;;;;;47.95;42.22;;;7.70;99.90;;;;;;6214179;23;20734;-85
2023/03/21 02:58:01;;;;;;;47.60;41.83;;;7.70;99.90;;;;;;6217564;23;20372;-85
2023/03/21 03:00:30;;;;;;;46.20;41.40;;;7.80;99.90;;;;;;6242677;23;20837;-84
2023/03/21 03:02:56;;;;;;;45.83;41.03;;;7.70;99.90;;;;;;6242223;23;20659;-85
2023/03/21 03:05:28;;;;;;;46.85;41.88;;;7.70;99.90;;;;;;6215286;23;20363;-84
2023/03/21 03:08:18;;;;;;;44.97;40.25;;;7.70;99.90;;;;;;6243156;23;20356;-85
2023/03/21 03:11:07;;;;;;;45.13;40.33;;;7.60;99.90;;;;;;6243546;23;20628;-84
2023/03/21 03:14:15;;;;;;;45.92;40.92;;;7.70;99.90;;;;;;6243915;23;20655;-84
2023/03/21 03:17:00;;;;;;;45.33;40.42;;;7.70;99.90;;;;;;6226148;23;20376;-87
2023/03/21 03:19:29;;;;;;;45.25;40.40;;;7.70;99.90;;;;;;6243439;23;20372;-85
2023/03/21 03:22:05;;;;;;;47.60;41.65;;;7.70;99.90;;;;;;6243326;23;20332;-84
2023/03/21 03:24:37;;;;;;;46.15;41.17;;;7.60;99.90;;;;;;6242610;23;20337;-85
2023/03/21 03:27:14;;;;;;;48.08;41.28;;;7.60;99.90;;;;;;6241378;23;20356;-85
2023/03/21 03:29:43;;;;;;;45.65;40.65;;;7.60;99.90;;;;;;6242995;23;20340;-85
2023/03/21 03:32:14;;;;;;;48.10;41.47;;;7.60;99.90;;;;;;6242622;23;20340;-84
2023/03/21 03:34:48;;;;;;;46.95;41.65;;;7.60;99.90;;;;;;6243465;23;20336;-85
2023/03/21 03:37:19;;;;;;;46.97;41.80;;;7.60;99.90;;;;;;6242509;23;20367;-85
2023/03/21 03:40:04;;;;;;;49.97;40.93;;;7.60;99.90;;;;;;6243415;23;20364;-84
2023/03/21 03:42:44;;;;;;;45.70;40.80;;;7.60;99.90;;;;;;6243517;23;21026;-84
2023/03/21 03:45:10;;;;;;;45.90;40.90;;;7.60;99.90;;;;;;6249578;23;20345;-85
2023/03/21 03:47:48;;;;;;;46.55;41.10;;;7.50;99.90;;;;;;6217468;23;20763;-84
2023/03/21 03:50:25;;;;;;;47.92;42.28;;;7.50;99.90;;;;;;6243254;23;20379;-84
2023/03/21 03:53:20;;;;;;;47.13;40.65;;;7.50;99.90;;;;;;6244285;23;20807;-84
2023/03/21 03:55:48;;;;;;;47.40;40.75;;;7.50;99.90;;;;;;6241956;23;20430;-83
2023/03/21 03:58:18;;;;;;;50.92;42.08;;;7.40;99.90;;;;;;6217966;23;20368;-85
2023/03/21 04:00:44;;;;;;;50.05;41.03;;;7.40;99.90;;;;;;6216073;23;20352;-84
2023/03/21 04:03:10;;;;;;;47.45;40.38;;;7.40;99.90;;;;;;6215804;23;20440;-84
2023/03/21 04:05:36;;;;;;;47.50;40.37;;;7.40;99.90;;;;;;6242772;23;20368;-84
2023/03/21 04:08:02;;;;;;;48.38;40.17;;;7.40;99.90;;;;;;6241495;23;20351;-83
2023/03/21 04:10:28;;;;;;;48.20;40.30;;;7.40;99.90;;;;;;6238236;23;20443;-84
2023/03/21 04:12:53;;;;;;;47.87;39.53;;;7.50;99.90;;;;;;6242149;23;20426;-84
2023/03/21 04:15:19;;;;;;;48.38;40.17;;;7.50;99.90;;;;;;6214950;23;20356;-83
2023/03/21 04:17:46;;;;;;;48.75;40.80;;;7.40;99.90;;;;;;6241425;23;20858;-85
2023/03/21 04:20:12;;;;;;;47.42;39.88;;;7.40;99.90;;;;;;6242627;23;20336;-85
2023/03/21 04:22:39;;;;;;;47.80;39.55;;;7.60;99.90;;;;;;6242654;23;20348;-84
2023/03/21 04:25:06;;;;;;;51.70;41.55;;;7.40;99.90;;;;;;6242088;23;20340;-84
2023/03/21 04:27:32;;;;;;;49.33;39.47;;;7.40;99.90;;;;;;6214895;23;20360;-85
2023/03/21 04:29:58;;;;;;;49.08;40.08;;;7.50;99.90;;;;;;6243607;23;20442;-85
2023/03/21 04:32:25;;;;;;;48.22;40.08;;;7.50;99.90;;;;;;6244369;23;20335;-85
2023/03/21 04:34:52;;;;;;;47.00;37.90;;;7.40;99.90;;;;;;6244840;23;20431;-85
2023/03/21 04:37:19;;;;;;;47.33;39.03;;;7.50;99.90;;;;;;6244423;23;20456;-85
2023/03/21 04:39:46;;;;;;;45.90;38.43;;;7.50;99.90;;;;;;6220808;23;20694;-85
2023/03/21 04:42:17;;;;;;;48.83;39.60;;;7.50;99.90;;;;;;6258371;22;20354;-84
2023/03/21 04:44:43;;;;;;;50.30;40.45;;;7.40;99.90;;;;;;6267200;22;20348;-85
2023/03/21 04:47:09;;;;;;;50.13;39.83;;;7.40;99.90;;;;;;6258739;23;20394;-85
2023/03/21 04:49:35;;;;;;;51.58;41.72;;;7.40;99.90;;;;;;6242808;23;20372;-85
2023/03/21 04:52:01;;;;;;;54.75;41.75;;;7.40;99.90;;;;;;6241861;23;20356;-83
2023/03/21 04:54:27;;;;;;;53.58;41.88;;;7.40;99.90;;;;;;6241529;23;20348;-84
2023/03/21 04:56:52;;;;;;;56.97;42.57;;;7.40;99.90;;;;;;6241308;23;20455;-84
2023/03/21 04:59:20;;;;;;;58.40;44.27;;;7.30;99.90;;;;;;6241531;23;20344;-84
2023/03/21 05:01:46;;;;;;;60.15;43.67;;;7.30;99.90;;;;;;6214044;23;20410;-84
2023/03/21 05:04:13;;;;;;;59.35;44.58;;;7.20;99.90;;;;;;6241883;23;20340;-84
2023/03/21 05:06:41;;;;;;;62.38;45.65;;;7.20;99.90;;;;;;6240134;23;20355;-84
2023/03/21 05:09:07;;;;;;;56.67;44.05;;;7.30;99.90;;;;;;6241557;23;20442;-85
2023/03/21 05:11:36;;;;;;;60.03;44.15;;;7.30;99.90;;;;;;6241350;23;20795;-85
2023/03/21 05:14:10;;;;;;;56.97;42.70;;;7.40;99.90;;;;;;6214784;23;20340;-85
2023/03/21 05:16:47;;;;;;;53.90;41.78;;;7.50;99.90;;;;;;6240897;23;20375;-85
2023/03/21 05:19:14;;;;;;;59.70;44.47;;;7.60;99.90;;;;;;6241727;23;20453;-84
2023/03/21 05:21:40;;;;;;;57.35;42.25;;;7.60;99.90;;;;;;6241631;23;20348;-84
2023/03/21 05:24:13;;;;;;;59.67;43.23;;;7.60;99.90;;;;;;6214309;23;20413;-84
2023/03/21 05:26:40;;;;;;;55.13;42.33;;;7.50;99.90;;;;;;6213838;23;20351;-85
2023/03/21 05:29:06;;;;;;;58.55;43.13;;;7.60;99.90;;;;;;6241220;23;20344;-85
2023/03/21 05:31:32;;;;;;;60.00;42.22;;;7.50;99.90;;;;;;6214372;23;20374;-84
2023/03/21 05:33:58;;;;;;;57.53;44.00;;;7.40;99.90;;;;;;6215130;23;20431;-83
2023/03/21 05:36:24;;;;;;;59.55;43.75;;;7.40;99.90;;;;;;6214116;23;20375;-83
2023/03/21 05:38:50;;;;;;;62.73;45.73;;;7.40;99.90;;;;;;6241545;23;20345;-84
2023/03/21 05:41:17;;;;;;;60.83;44.33;;;7.50;99.90;;;;;;6241512;23;20348;-83
2023/03/21 05:43:43;;;;;;;60.33;43.83;;;7.50;99.90;;;;;;6241946;23;20641;-83
2023/03/21 05:46:10;;;;;;;63.80;45.85;;;7.50;99.90;;;;;;6242036;23;20431;-84
2023/03/21 05:48:36;;;;;;;59.67;45.22;;;7.50;99.90;;;;;;6241264;23;20815;-84
2023/03/21 05:51:02;;;;;;;61.85;46.47;;;7.40;99.90;;;;;;6241436;23;20838;-84
2023/03/21 05:53:29;;;;;;;61.38;46.35;;;7.40;99.90;;;;;;6241460;23;20348;-84
2023/03/21 05:55:55;;;;;;;59.85;45.22;;;7.50;99.90;;;;;;6213953;23;20814;-84
2023/03/21 05:58:20;;;;;;;61.08;44.42;;;7.60;99.90;;;;;;6240577;23;20416;-84
2023/03/21 06:00:46;;;;;;;59.28;44.72;;;7.50;99.90;;;;;;6242648;23;20376;-84
2023/03/21 06:03:12;;;;;;;58.27;44.33;;;7.60;99.90;;;;;;6241742;23;20467;-85
2023/03/21 06:05:37;;;;;;;59.58;45.75;;;7.50;99.90;;;;;;6242597;23;20449;-84
2023/03/21 06:08:03;;;;;;;59.25;44.15;;;7.50;99.90;;;;;;6242095;23;20347;-85
2023/03/21 06:10:29;;;;;;;59.53;45.50;;;7.50;99.90;;;;;;6243038;23;20344;-84
2023/03/21 06:12:55;;;;;;;57.58;44.95;;;7.50;99.90;;;;;;6243532;23;20542;-84
2023/03/21 06:15:21;;;;;;;59.90;44.67;;;7.60;99.90;;;;;;6242459;23;20346;-85
2023/03/21 06:17:47;;;;;;;61.72;46.15;;;7.80;99.90;;;;;;6238892;23;20419;-85
2023/03/21 06:20:12;;;;;;;60.73;46.50;;;7.80;99.90;;;;;;6212848;23;20388;-84
2023/03/21 06:22:38;;;;;;;58.77;45.93;;;7.70;99.90;;;;;;6238541;23;21081;-84
2023/03/21 06:25:06;;;;;;;60.95;46.58;;;7.70;99.90;;;;;;6239589;23;20447;-84
2023/03/21 06:27:33;;;;;;;60.65;46.58;;;7.60;99.90;;;;;;6241181;23;20341;-84
2023/03/21 06:29:59;;;;;;;59.22;45.85;;;7.70;99.90;;;;;;6240079;23;20425;-84
2023/03/21 06:32:25;;;;;;;60.90;45.92;;;7.80;99.90;;;;;;6212482;23;21115;-84
2023/03/21 06:34:52;;;;;;;65.07;46.70;;;7.70;99.90;;;;;;6240914;23;20351;-84
2023/03/21 06:37:18;;;;;;;63.03;46.83;;;7.70;99.90;;;;;;6214632;23;20368;-84
2023/03/21 06:39:45;;;;;;;61.83;47.35;;;7.80;99.90;;;;;;6242042;23;20372;-85
2023/03/21 06:42:11;;;;;;;59.17;45.90;;;7.90;99.90;;;;;;6243423;23;20348;-84
2023/03/21 06:44:37;;;;;;;57.38;44.88;;;7.90;99.90;;;;;;6244187;23;20352;-85
2023/03/21 06:47:03;;;;;;;57.80;44.77;;;8.20;99.90;;;;;;6243420;23;20671;-84
2023/03/21 06:49:29;;;;;;;73.63;55.70;;;8.10;99.90;;;;;;6216631;23;20348;-85
2023/03/21 06:51:55;;;;;;;74.05;54.63;;;8.00;99.90;;;;;;6244405;23;20644;-85
2023/03/21 06:54:21;;;;;;;67.30;51.53;;;7.90;99.90;;;;;;6244896;23;20344;-84
2023/03/21 06:56:46;;;;;;;77.67;54.83;;;7.90;99.90;;;;;;6243455;23;20870;-84
2023/03/21 06:59:12;;;;;;;71.30;54.58;;;7.90;99.90;;;;;;6216666;23;20768;-84
2023/03/21 07:01:38;;;;;;;70.45;52.45;;;7.90;99.90;;;;;;6217643;23;20349;-85
2023/03/21 07:04:07;;;;;;;63.97;48.35;;;8.00;99.90;;;;;;6243292;23;20344;-85
2023/03/21 07:06:33;;;;;;;62.33;46.13;;;8.10;99.90;;;;;;6243195;23;20351;-84
2023/03/21 07:08:59;;;;;;;63.03;47.00;;;8.20;99.90;;;;;;6215952;23;20431;-84
2023/03/21 07:11:25;;;;;;;65.20;47.42;;;8.10;99.90;;;;;;6242517;23;20402;-83
2023/03/21 07:13:52;;;;;;;64.60;47.03;;;8.00;99.90;;;;;;6242401;23;20345;-83
2023/03/21 07:16:20;;;;;;;59.97;46.73;;;8.00;99.90;;;;;;6215641;23;20368;-84
2023/03/21 07:18:46;;;;;;;60.35;46.33;;;8.00;99.90;;;;;;6242846;23;20459;-83
2023/03/21 07:21:12;;;;;;;61.42;45.83;;;8.10;99.90;;;;;;6242846;23;20446;-85
2023/03/21 07:23:39;;;;;;;65.30;46.97;;;8.10;99.90;;;;;;6246231;23;20348;-86
2023/03/21 07:26:05;;;;;;;58.70;45.58;;;8.10;99.90;;;;;;6235328;22;20378;-84
2023/03/21 07:28:32;;;;;;;61.77;45.53;;;8.30;99.90;;;;;;6238083;23;20557;-85
2023/03/21 07:31:01;;;;;;;54.80;43.90;;;8.20;99.90;;;;;;6222094;23;20364;-86
2023/03/21 07:33:27;;;;;;;55.23;43.70;;;8.20;99.90;;;;;;6244289;23;20381;-86
2023/03/21 07:35:54;;;;;;;55.13;42.50;;;8.30;99.90;;;;;;6216642;23;20348;-86
2023/03/21 07:38:20;;;;;;;53.55;42.25;;;8.40;99.90;;;;;;6242572;23;20372;-86
2023/03/21 07:40:48;;;;;;;48.10;40.25;;;8.50;99.90;;;;;;6242269;23;20379;-86
2023/03/21 07:43:14;;;;;;;51.47;40.33;;;8.70;99.90;;;;;;6216317;23;20401;-86
2023/03/21 07:45:41;;;;;;;47.10;38.75;;;8.70;99.90;;;;;;6215285;23;20847;-86
2023/03/21 07:48:08;;;;;;;47.45;39.35;;;8.80;99.90;;;;;;6242211;23;20676;-85
2023/03/21 07:50:34;;;;;;;49.60;39.83;;;8.80;99.90;;;;;;6242966;23;20340;-86
2023/03/21 07:53:00;;;;;;;50.70;40.08;;;8.90;99.90;;;;;;6216150;23;20352;-86
2023/03/21 07:55:26;;;;;;;50.75;40.58;;;8.80;99.90;;;;;;6242987;23;20341;-86
2023/03/21 07:57:52;;;;;;;51.40;40.67;;;8.60;99.90;;;;;;6215204;23;20376;-85
2023/03/21 08:00:22;;;;;;;53.72;41.92;;;8.60;99.90;;;;;;6215315;23;20693;-86
2023/03/21 08:02:53;;;;;;;52.60;40.88;;;8.60;99.90;;;;;;6215836;23;20352;-86
2023/03/21 08:05:24;;;;;;;53.50;40.78;;;8.60;99.90;;;;;;6240997;23;20364;-84
2023/03/21 08:07:50;;;;;;;51.38;38.88;;;8.70;99.90;;;;;;6213995;23;20480;-87
2023/03/21 08:10:17;;;;;;;50.35;39.20;;;8.70;99.90;;;;;;6242102;23;20426;-86
2023/03/21 08:12:43;;;;;;;47.00;38.35;;;8.80;99.90;;;;;;6214811;23;20359;-87
2023/03/21 08:15:11;;;;;;;47.72;37.58;;;9.00;99.90;;;;;;6219055;23;20819;-87
2023/03/21 08:17:38;;;;;;;46.42;37.08;;;9.10;99.90;;;;;;6247345;23;20364;-89
2023/03/21 08:20:07;;;;;;;43.75;36.08;;;9.10;99.90;;;;;;6215342;23;20348;-85
2023/03/21 08:22:34;;;;;;;40.53;34.33;;;9.10;99.90;;;;;;6215910;23;20447;-85
2023/03/21 08:24:59;;;;;;;40.90;33.88;;;9.10;99.90;;;;;;6241874;23;20367;-87
2023/03/21 08:27:25;;;;;;;40.78;34.30;;;9.20;99.90;;;;;;6214000;23;20811;-87
2023/03/21 08:29:51;;;;;;;40.55;34.13;;;9.20;99.90;;;;;;6242395;23;20427;-87
2023/03/21 08:32:18;;;;;;;43.40;34.42;;;9.30;99.90;;;;;;6214240;23;20357;-86
2023/03/21 08:34:44;;;;;;;41.40;33.87;;;9.10;99.90;;;;;;6215023;23;20344;-86
2023/03/21 08:37:10;;;;;;;42.33;35.07;;;9.00;99.90;;;;;;6214647;23;20506;-85
2023/03/21 08:39:37;;;;;;;41.53;34.17;;;9.00;99.90;;;;;;6241734;23;20348;-86
2023/03/21 08:42:04;;;;;;;41.58;34.72;;;9.00;99.90;;;;;;6242142;23;20795;-87
2023/03/21 08:44:30;;;;;;;42.08;33.38;;;9.20;99.90;;;;;;6243564;23;20351;-87
2023/03/21 08:46:55;;;;;;;38.50;33.43;;;9.20;99.90;;;;;;6215440;23;20414;-87
2023/03/21 08:49:26;;;;;;;40.28;33.70;;;9.10;99.90;;;;;;6215490;23;20414;-88
2023/03/21 08:51:58;;;;;;;41.70;34.33;;;9.10;99.90;;;;;;6214525;23;20348;-87
2023/03/21 08:54:24;;;;;;;48.50;36.83;;;9.10;99.90;;;;;;6219183;23;20641;-87
2023/03/21 08:57:13;;;;;;;39.47;32.42;;;9.30;99.90;;;;;;6217682;23;20854;-87
2023/03/21 08:59:51;;;;;;;39.75;33.80;;;9.40;99.90;;;;;;6251065;23;20355;-85
2023/03/21 09:02:17;;;;;;;40.13;33.67;;;9.50;99.90;;;;;;6220047;23;20830;-89
2023/03/21 09:04:43;;;;;;;40.28;34.63;;;9.50;99.90;;;;;;6218741;23;20400;-88
2023/03/21 09:07:13;;;;;;;39.78;33.78;;;9.30;99.90;;;;;;6217904;23;20386;-87
2023/03/21 09:10:02;;;;;;;40.40;34.53;;;9.30;99.90;;;;;;6219260;23;20364;-89
2023/03/21 09:12:34;;;;;;;46.72;35.20;;;9.30;99.90;;;;;;6243402;23;20356;-87
2023/03/21 09:15:01;;;;;;;39.35;34.22;;;9.20;99.90;;;;;;6217167;23;20352;-86
2023/03/21 09:17:30;;;;;;;42.78;35.33;;;9.10;99.90;;;;;;6216134;23;20434;-88
2023/03/21 09:19:59;;;;;;;43.40;33.65;;;9.20;99.90;;;;;;6215210;23;20450;-88
2023/03/21 09:22:26;;;;;;;41.15;33.35;;;9.30;99.90;;;;;;6243122;23;20355;-87
2023/03/21 09:24:52;;;;;;;39.63;32.45;;;9.50;99.90;;;;;;6215600;23;20353;-90
2023/03/21 09:27:21;;;;;;;37.03;31.47;;;9.40;99.90;;;;;;6215264;23;20445;-86
2023/03/21 09:29:51;;;;;;;39.13;31.48;;;9.60;99.90;;;;;;6213238;22;20386;-88
2023/03/21 09:32:17;;;;;;;36.92;29.95;;;9.70;99.90;;;;;;6215599;23;20447;-86
2023/03/21 09:34:47;;;;;;;33.30;29.45;;;9.70;99.90;;;;;;6215077;23;20807;-86
2023/03/21 09:37:23;;;;;;;33.75;29.48;;;9.90;99.90;;;;;;6215398;23;20895;-87
2023/03/21 09:39:50;;;;;;;38.60;30.08;;;9.90;99.90;;;;;;6220322;23;20410;-85
2023/03/21 09:42:35;;;;;;;33.38;29.08;;;9.80;99.90;;;;;;6223450;23;20431;-86
2023/03/21 09:45:38;;;;;;;33.50;29.27;;;10.00;99.90;;;;;;6222961;23;20510;-85
2023/03/21 09:48:32;;;;;;;34.87;29.57;;;10.10;99.90;;;;;;6093080;23;20366;-85
2023/03/21 09:51:45;;;;;;;33.35;29.27;;;10.20;99.90;;;;;;6120708;23;20529;-85
2023/03/21 09:54:21;;;;;;;34.10;28.90;;;10.30;99.90;;;;;;6115911;23;20355;-88
2023/03/21 09:56:50;;;;;;;31.05;26.38;;;10.30;99.90;;;;;;6108323;23;20371;-86
2023/03/21 09:59:36;;;;;;;32.55;27.50;;;10.60;99.90;;;;;;6245295;23;20336;-85
2023/03/21 10:02:21;;;;;;;33.28;27.70;;;10.60;99.90;;;;;;6218141;23;20348;-86
2023/03/21 10:06:13;;;;;;;30.40;27.10;;;10.60;99.90;;;;;;6219266;23;20341;-87
2023/03/21 10:08:36;;;;;;;33.03;27.38;;;10.50;99.90;;;;;;6233718;23;20405;-87
2023/03/21 10:11:27;;;;;;;33.85;27.63;;;10.70;99.90;;;;;;6238845;22;20425;-87
2023/03/21 10:14:22;;;;;;;32.58;26.83;;;10.60;99.90;;;;;;6224364;23;20355;-84
2023/03/21 10:16:58;;;;;;;30.33;26.05;;;10.70;99.90;;;;;;6119311;23;20374;-88
2023/03/21 10:19:30;;;;;;;31.00;26.27;;;10.80;99.90;;;;;;6220839;23;20354;-86
2023/03/21 10:21:56;;;;;;;30.30;25.95;;;10.90;99.90;;;;;;6245599;23;20360;-85
2023/03/21 10:25:15;;;;;;;29.92;26.70;;;11.00;99.90;;;;;;6220070;23;20702;-85
2023/03/21 10:27:22;;;;;;;30.75;25.83;;;10.80;99.90;;;;;;6229148;23;20399;-86
2023/03/21 10:30:00;;;;;;;32.50;27.58;;;10.90;99.90;;;;;;6219548;23;20349;-85
2023/03/21 10:32:32;;;;;;;31.65;26.60;;;10.70;99.90;;;;;;6227867;23;20344;-85
2023/03/21 10:34:58;;;;;;;30.23;26.08;;;11.00;99.90;;;;;;6221128;23;20332;-86
2023/03/21 10:37:41;;;;;;;30.45;26.95;;;11.10;99.90;;;;;;6219358;23;20946;-85
2023/03/21 10:40:19;;;;;;;29.65;26.30;;;10.70;99.90;;;;;;6218613;23;20340;-86
2023/03/21 10:42:45;;;;;;;29.50;25.65;;;10.70;99.90;;;;;;6218766;23;20841;-85
2023/03/21 10:45:18;;;;;;;30.27;26.27;;;10.90;99.90;;;;;;6218646;23;20422;-85
2023/03/21 10:47:48;;;;;;;29.67;25.58;;;10.90;99.90;;;;;;6219979;23;20439;-85
2023/03/21 10:50:18;;;;;;;31.33;25.77;;;11.10;99.90;;;;;;6247108;23;20384;-85
2023/03/21 10:52:49;;;;;;;30.08;25.27;;;11.30;99.90;;;;;;6219492;23;20575;-86
2023/03/21 10:55:34;;;;;;;27.63;24.23;;;11.30;99.90;;;;;;6219688;23;20706;-87
2023/03/21 10:58:17;;;;;;;31.10;25.30;;;11.40;99.90;;;;;;6220025;23;20841;-86
2023/03/21 11:01:16;;;;;;;;;;;;;;;;;;;;;
2023/03/21 11:04:32;;;;;;;29.50;24.85;;;11.20;99.90;;;;;;6246910;23;20376;-83
2023/03/21 11:07:02;;;;;;;27.60;22.15;;;11.40;99.90;;;;;;6221737;23;20367;-83
2023/03/21 11:10:00;;;;;;;25.85;21.60;;;11.80;99.90;;;;;;6217774;23;20787;-82
2023/03/21 11:13:10;;;;;;;32.50;22.98;;;12.00;99.90;;;;;;6244714;23;20419;-83
2023/03/21 11:16:31;;;;;;;;;;;;;;;;;;;;;
2023/03/21 11:19:34;;;;;;;27.85;22.65;;;11.30;99.90;;;;;;6247584;23;20846;-85
2023/03/21 11:22:06;;;;;;;27.75;22.33;;;11.30;99.90;;;;;;6219171;23;20384;-84
2023/03/21 11:24:35;;;;;;;29.27;21.77;;;11.40;99.90;;;;;;6218091;23;20803;-84
2023/03/21 11:27:06;;;;;;;23.17;20.55;;;11.50;99.90;;;;;;6217315;23;20723;-84
2023/03/21 11:29:38;;;;;;;24.43;20.70;;;11.90;99.90;;;;;;6245693;23;20335;-84
2023/03/21 11:32:20;;;;;;;24.38;19.58;;;12.10;99.90;;;;;;6249948;23;20664;-84
2023/03/21 11:35:14;;;;;;;24.88;19.58;;;12.20;99.90;;;;;;6246286;23;20908;-86
2023/03/21 11:38:07;;;;;;;24.60;19.23;;;12.10;99.90;;;;;;6219137;23;20368;-84
2023/03/21 11:40:44;;;;;;;22.63;19.25;;;11.80;99.90;;;;;;6220451;23;20382;-84
2023/03/21 11:43:16;;;;;;;21.48;17.58;;;11.60;99.90;;;;;;6220851;23;20356;-83
2023/03/21 11:46:29;;;;;;;23.15;18.67;;;11.70;99.90;;;;;;6221523;23;20362;-83
2023/03/21 11:48:58;;;;;;;20.38;17.13;;;11.70;99.90;;;;;;6219476;23;20336;-84
2023/03/21 11:51:57;;;;;;;17.83;15.10;;;11.80;99.90;;;;;;6220064;23;20412;-84
2023/03/21 11:55:01;;;;;;;20.40;16.65;;;12.00;99.90;;;;;;6246821;23;20333;-84
2023/03/21 11:57:40;;;;;;;19.58;17.00;;;12.30;99.90;;;;;;6152994;23;20391;-85
2023/03/21 12:00:25;;;;;;;19.10;16.90;;;12.50;99.90;;;;;;6220009;23;20843;-85
2023/03/21 12:03:28;;;;;;;23.25;18.42;;;12.60;99.90;;;;;;6219655;23;20368;-86
2023/03/21 12:06:26;;;;;;;;;;;;;;;;;;;;;
2023/03/21 12:09:04;;;;;;;19.08;16.67;;;13.00;99.90;;;;;;6248682;23;20364;-86
2023/03/21 12:11:36;;;;;;;19.92;16.60;;;13.30;99.90;;;;;;6219305;23;20380;-86
2023/03/21 12:14:51;;;;;;;19.80;16.33;;;12.80;99.90;;;;;;6218493;23;20354;-85
2023/03/21 12:17:45;;;;;;;19.83;16.38;;;12.40;99.90;;;;;;6173675;23;20914;-86
2023/03/21 12:20:52;;;;;;;18.83;15.13;;;12.80;99.90;;;;;;6219377;23;20424;-85
2023/03/21 12:24:08;;;;;;;18.45;15.50;;;12.80;99.90;;;;;;6240893;23;20784;-85
2023/03/21 12:26:50;;;;;;;17.88;14.70;;;13.00;99.90;;;;;;6206528;23;20359;-85
2023/03/21 12:29:41;;;;;;;;;;;;;;;;;;;;;
2023/03/21 12:32:32;;;;;;;16.33;13.30;;;13.00;99.90;;;;;;6244421;23;20462;-86
2023/03/21 12:35:36;;;;;;;18.15;14.23;;;13.20;99.90;;;;;;6219131;23;20352;-85
2023/03/21 12:38:14;;;;;;;16.93;13.80;;;12.80;99.90;;;;;;6244965;23;20360;-85
2023/03/21 12:41:10;;;;;;;16.10;13.80;;;12.40;99.90;;;;;;6220643;23;20455;-84
2023/03/21 12:43:54;;;;;;;20.08;15.48;;;12.70;99.90;;;;;;6219857;23;20352;-84
2023/03/21 12:46:32;;;;;;;16.85;15.00;;;13.00;99.90;;;;;;6225589;23;20374;-85
2023/03/21 12:49:23;;;;;;;16.27;13.00;;;13.00;99.90;;;;;;6224830;23;20348;-85
2023/03/21 12:51:58;;;;;;;17.38;13.20;;;12.90;99.90;;;;;;6257608;23;20325;-85
2023/03/21 12:54:35;;;;;;;14.70;12.82;;;12.60;99.90;;;;;;6225590;23;20371;-86
2023/03/21 12:57:13;;;;;;;15.32;12.95;;;12.80;99.90;;;;;;6242212;22;20364;-85
2023/03/21 13:00:17;;;;;;;15.27;13.20;;;12.60;99.90;;;;;;6265866;22;20459;-85
2023/03/21 13:05:43;;;;;;;14.35;11.77;;;12.40;99.90;;;;;;6224617;23;20388;-85
2023/03/21 13:08:30;;;;;;;13.80;11.57;;;12.60;99.90;;;;;;6218351;23;20337;-84
2023/03/21 13:10:57;;;;;;;15.00;12.32;;;12.60;99.90;;;;;;6244685;23;20333;-84
2023/03/21 13:13:50;;;;;;;14.23;12.48;;;12.50;99.90;;;;;;6246618;23;20336;-85
2023/03/21 13:16:33;;;;;;;13.80;12.32;;;12.40;99.90;;;;;;6220526;23;20421;-86
2023/03/21 13:19:12;;;;;;;15.95;12.60;;;12.50;99.90;;;;;;6219887;23;20446;-86